Time;durP1;ratioP1;P1;durP2;ratioP2;P2;SDS_P1;SDS_P2;PMS_P1;PMS_P2;Temp;Humidity;BMP_temperature;BMP_pressure;BME280_temperature;BME280_humidity;BME280_pressure;Samples;Min_cycle;Max_cycle;Signal;HPM_P1;HPM_P2
2021/12/14 00:01:04;;;;;;;22.10;15.97;;;11.90;99.90;;;;;;5078072;28;20305;-82
2021/12/14 00:03:33;;;;;;;21.67;16.23;;;11.90;99.90;;;;;;5070573;28;20221;-83
2021/12/14 00:06:00;;;;;;;23.37;16.67;;;11.90;99.90;;;;;;5069467;28;20669;-82
2021/12/14 00:08:35;;;;;;;23.13;17.47;;;11.90;99.90;;;;;;5084050;28;20329;-83
2021/12/14 00:11:27;;;;;;;24.20;16.53;;;11.90;99.90;;;;;;5063397;28;20234;-83
2021/12/14 00:13:59;;;;;;;23.43;16.67;;;11.90;99.90;;;;;;5068588;28;20634;-83
2021/12/14 00:16:26;;;;;;;23.80;17.67;;;11.90;99.90;;;;;;5072179;28;20339;-83
2021/12/14 00:18:53;;;;;;;24.43;15.97;;;11.90;99.90;;;;;;5072586;28;20225;-83
2021/12/14 00:21:29;;;;;;;24.77;17.37;;;11.90;99.90;;;;;;5068215;28;20249;-83
2021/12/14 00:24:07;;;;;;;23.43;16.37;;;11.90;99.90;;;;;;5060023;28;20224;-83
2021/12/14 00:26:36;;;;;;;24.90;17.67;;;11.90;99.90;;;;;;5063561;28;20230;-85
2021/12/14 00:29:04;;;;;;;23.63;16.33;;;11.90;99.90;;;;;;5075934;28;20313;-82
2021/12/14 00:31:31;;;;;;;25.83;19.97;;;11.90;99.90;;;;;;5074096;28;20319;-83
2021/12/14 00:34:01;;;;;;;22.77;17.07;;;11.90;99.90;;;;;;5068445;28;20278;-83
2021/12/14 00:36:28;;;;;;;22.43;16.63;;;11.90;99.90;;;;;;5067899;28;20224;-82
2021/12/14 00:38:57;;;;;;;23.83;17.40;;;11.90;99.90;;;;;;5077092;28;20310;-82
2021/12/14 00:41:28;;;;;;;23.50;16.87;;;11.90;99.90;;;;;;5067160;28;20226;-82
2021/12/14 00:43:56;;;;;;;24.27;16.70;;;11.80;99.90;;;;;;5075841;28;20305;-82
2021/12/14 00:46:23;;;;;;;25.83;18.50;;;11.80;99.90;;;;;;5067217;28;20221;-83
2021/12/14 00:48:51;;;;;;;28.73;21.00;;;11.80;99.90;;;;;;5071754;28;20321;-83
2021/12/14 00:51:21;;;;;;;27.73;18.97;;;11.80;99.90;;;;;;5073652;28;20222;-83
2021/12/14 00:53:49;;;;;;;25.37;17.67;;;11.80;99.90;;;;;;5070538;28;20223;-82
2021/12/14 00:56:17;;;;;;;25.00;16.50;;;11.80;99.90;;;;;;5067699;28;20302;-82
2021/12/14 00:58:45;;;;;;;24.27;16.37;;;11.80;99.90;;;;;;5077698;28;20239;-84
2021/12/14 01:01:16;;;;;;;24.80;15.97;;;11.80;99.90;;;;;;5068623;28;20274;-84
2021/12/14 01:03:46;;;;;;;23.47;16.43;;;11.80;99.90;;;;;;5063677;28;20393;-84
2021/12/14 01:06:14;;;;;;;23.27;16.10;;;11.80;99.90;;;;;;5070070;28;20212;-84
2021/12/14 01:08:43;;;;;;;23.83;16.00;;;11.80;99.90;;;;;;5070548;28;20556;-85
2021/12/14 01:11:15;;;;;;;22.47;15.43;;;11.80;99.90;;;;;;5073230;28;20233;-85
2021/12/14 01:13:53;;;;;;;23.53;15.63;;;11.80;99.90;;;;;;5077331;28;20222;-86
2021/12/14 01:16:33;;;;;;;21.53;16.30;;;11.80;99.90;;;;;;5073717;28;20229;-85
2021/12/14 01:19:13;;;;;;;22.40;14.20;;;11.80;99.90;;;;;;5071285;28;20653;-85
2021/12/14 01:21:59;;;;;;;20.30;15.37;;;11.80;99.90;;;;;;5074520;28;20216;-84
2021/12/14 01:24:52;;;;;;;24.30;15.23;;;11.80;99.90;;;;;;5067356;28;20220;-85
2021/12/14 01:27:23;;;;;;;22.57;15.30;;;11.80;99.90;;;;;;5072269;28;20247;-85
2021/12/14 01:29:54;;;;;;;19.90;14.60;;;11.80;99.90;;;;;;5080708;28;20214;-85
2021/12/14 01:32:25;;;;;;;20.73;13.93;;;11.80;99.90;;;;;;5065492;28;20226;-85
2021/12/14 01:34:52;;;;;;;19.70;13.77;;;11.80;99.90;;;;;;5068882;28;21007;-85
2021/12/14 01:37:24;;;;;;;18.83;13.43;;;11.80;99.90;;;;;;5068061;28;20226;-86
2021/12/14 01:40:03;;;;;;;21.03;14.10;;;11.80;99.90;;;;;;5070623;28;20230;-85
2021/12/14 01:42:37;;;;;;;21.63;13.70;;;11.80;99.90;;;;;;5067474;28;20251;-85
2021/12/14 01:45:13;;;;;;;18.40;14.30;;;11.80;99.90;;;;;;5078692;28;20674;-87
2021/12/14 01:47:45;;;;;;;22.13;14.80;;;11.80;99.90;;;;;;5070566;28;20221;-86
2021/12/14 01:50:34;;;;;;;19.50;13.67;;;11.80;99.90;;;;;;5081785;28;20325;-85
2021/12/14 01:53:13;;;;;;;18.80;13.53;;;11.80;99.90;;;;;;5058257;28;20253;-86
2021/12/14 01:55:44;;;;;;;18.90;13.50;;;11.80;99.90;;;;;;5069084;28;20313;-85
2021/12/14 01:58:12;;;;;;;17.37;12.93;;;11.80;99.90;;;;;;5064018;28;20229;-87
2021/12/14 02:00:44;;;;;;;16.93;12.60;;;11.80;99.90;;;;;;5069348;28;20309;-86
2021/12/14 02:03:15;;;;;;;19.83;13.63;;;11.80;99.90;;;;;;5069260;28;20595;-87
2021/12/14 02:05:47;;;;;;;19.17;12.50;;;11.80;99.90;;;;;;5079946;28;20272;-86
2021/12/14 02:08:17;;;;;;;19.67;13.37;;;11.80;99.90;;;;;;5066764;28;20709;-86
2021/12/14 02:10:47;;;;;;;18.23;12.77;;;11.80;99.90;;;;;;5075614;28;20960;-86
2021/12/14 02:13:21;;;;;;;18.13;13.83;;;11.80;99.90;;;;;;5079128;28;20331;-86
2021/12/14 02:15:50;;;;;;;18.20;13.30;;;11.80;99.90;;;;;;5072918;28;20221;-86
2021/12/14 02:18:23;;;;;;;20.27;13.23;;;11.90;99.90;;;;;;5075844;28;20262;-85
2021/12/14 02:20:56;;;;;;;17.70;12.90;;;11.80;99.90;;;;;;5084384;28;20238;-85
2021/12/14 02:23:23;;;;;;;18.23;13.13;;;11.90;99.90;;;;;;5077403;28;20265;-85
2021/12/14 02:25:52;;;;;;;16.73;13.07;;;11.90;99.90;;;;;;5067409;28;20768;-86
2021/12/14 02:28:21;;;;;;;19.47;13.03;;;11.90;99.90;;;;;;5061412;28;20255;-85
2021/12/14 02:30:51;;;;;;;19.00;12.43;;;11.90;99.90;;;;;;5067460;28;20286;-85
2021/12/14 02:33:23;;;;;;;15.90;12.30;;;11.90;99.90;;;;;;5073233;28;20698;-87
2021/12/14 02:35:51;;;;;;;18.40;13.23;;;11.90;99.90;;;;;;5076258;28;20275;-87
2021/12/14 02:38:21;;;;;;;18.40;13.10;;;11.90;99.90;;;;;;5072670;28;20644;-87
2021/12/14 02:40:55;;;;;;;16.47;13.20;;;11.90;99.90;;;;;;5078628;28;20738;-88
2021/12/14 02:43:35;;;;;;;18.73;13.90;;;11.80;99.90;;;;;;5077346;28;20710;-86
2021/12/14 02:46:07;;;;;;;17.40;13.13;;;11.90;99.90;;;;;;5068836;28;20227;-87
2021/12/14 02:48:33;;;;;;;18.03;13.00;;;11.90;99.90;;;;;;5068054;28;20657;-85
2021/12/14 02:51:07;;;;;;;18.23;13.23;;;11.80;99.90;;;;;;5073481;28;20218;-88
2021/12/14 02:53:36;;;;;;;18.80;12.77;;;11.80;99.90;;;;;;5071729;28;20222;-86
2021/12/14 02:56:10;;;;;;;19.27;13.40;;;11.80;99.90;;;;;;5071424;28;20230;-86
2021/12/14 02:58:38;;;;;;;17.80;13.60;;;11.80;99.90;;;;;;5073134;28;20219;-85
2021/12/14 03:01:07;;;;;;;19.30;14.50;;;11.80;99.90;;;;;;5074314;28;20317;-88
2021/12/14 03:03:35;;;;;;;16.37;13.07;;;11.80;99.90;;;;;;5071133;28;20210;-86
2021/12/14 03:06:04;;;;;;;18.07;13.80;;;11.80;99.90;;;;;;5063000;28;20271;-87
2021/12/14 03:08:37;;;;;;;19.17;14.40;;;11.80;99.90;;;;;;5061954;28;20260;-86
2021/12/14 03:11:13;;;;;;;18.67;14.10;;;11.80;99.90;;;;;;5069510;28;20232;-86
2021/12/14 03:13:43;;;;;;;19.40;14.23;;;11.80;99.90;;;;;;5069087;28;20219;-86
2021/12/14 03:16:14;;;;;;;20.50;15.33;;;11.80;99.90;;;;;;5053409;28;20225;-86
2021/12/14 03:18:47;;;;;;;21.27;14.73;;;11.80;99.90;;;;;;5075551;28;20253;-86
2021/12/14 03:21:18;;;;;;;18.13;13.93;;;11.80;99.90;;;;;;5081605;28;20313;-86
2021/12/14 03:23:49;;;;;;;17.03;14.07;;;11.80;99.90;;;;;;5081941;28;20291;-85
2021/12/14 03:26:22;;;;;;;18.57;13.90;;;11.80;99.90;;;;;;5069953;28;20251;-85
2021/12/14 03:28:52;;;;;;;18.77;14.07;;;11.80;99.90;;;;;;5088700;28;20223;-85
2021/12/14 03:31:25;;;;;;;22.03;14.67;;;11.80;99.90;;;;;;5072942;28;20233;-85
2021/12/14 03:33:55;;;;;;;19.27;13.97;;;11.90;99.90;;;;;;5065023;28;20278;-85
2021/12/14 03:36:26;;;;;;;21.00;15.37;;;11.80;99.90;;;;;;5069654;28;20250;-85
2021/12/14 03:38:58;;;;;;;17.87;13.70;;;11.80;99.90;;;;;;5067500;28;20227;-86
2021/12/14 03:41:30;;;;;;;17.73;13.67;;;11.80;99.90;;;;;;5067559;28;20310;-86
2021/12/14 03:44:00;;;;;;;20.73;14.50;;;11.80;99.90;;;;;;5062740;28;20304;-86
2021/12/14 03:46:38;;;;;;;18.30;13.73;;;11.80;99.90;;;;;;5071414;28;20207;-86
2021/12/14 03:49:08;;;;;;;19.50;13.77;;;11.80;99.90;;;;;;5074697;28;20226;-86
2021/12/14 03:51:36;;;;;;;18.37;13.40;;;11.80;99.90;;;;;;5068973;28;20605;-88
2021/12/14 03:54:05;;;;;;;18.83;14.80;;;11.80;99.90;;;;;;5077600;28;20226;-85
2021/12/14 03:56:35;;;;;;;16.93;13.30;;;11.80;99.90;;;;;;5068908;28;20696;-86
2021/12/14 03:59:01;;;;;;;19.53;14.13;;;11.80;99.90;;;;;;5067104;28;20309;-85
2021/12/14 04:01:35;;;;;;;17.47;13.77;;;11.80;99.90;;;;;;5060033;28;20276;-85
2021/12/14 04:04:10;;;;;;;18.60;13.23;;;11.80;99.90;;;;;;5072735;28;20709;-85
2021/12/14 04:06:37;;;;;;;19.57;13.97;;;11.80;99.90;;;;;;5070260;28;20242;-85
2021/12/14 04:09:08;;;;;;;19.53;13.37;;;11.80;99.90;;;;;;5076504;28;20219;-86
2021/12/14 04:11:36;;;;;;;20.47;13.33;;;11.80;99.90;;;;;;5067033;28;20223;-86
2021/12/14 04:14:04;;;;;;;20.00;13.93;;;11.80;99.90;;;;;;5083820;28;20231;-86
2021/12/14 04:16:37;;;;;;;19.13;13.40;;;11.80;99.90;;;;;;5079033;28;20234;-85
2021/12/14 04:19:07;;;;;;;19.07;14.27;;;11.80;99.90;;;;;;5071952;28;20711;-85
2021/12/14 04:21:35;;;;;;;18.17;13.90;;;11.80;99.90;;;;;;5071018;28;20279;-84
2021/12/14 04:24:03;;;;;;;20.30;14.73;;;11.80;99.90;;;;;;5072195;28;20251;-86
2021/12/14 04:26:30;;;;;;;17.03;13.60;;;11.80;99.90;;;;;;5066809;28;20232;-85
2021/12/14 04:29:02;;;;;;;17.57;13.87;;;11.80;99.90;;;;;;5077082;28;20275;-86
2021/12/14 04:31:33;;;;;;;18.33;14.07;;;11.80;99.90;;;;;;5081111;28;20742;-87
2021/12/14 04:34:00;;;;;;;18.60;13.20;;;11.80;99.90;;;;;;5084610;28;20223;-87
2021/12/14 04:36:29;;;;;;;16.67;13.73;;;11.80;99.90;;;;;;5072596;28;20234;-86
2021/12/14 04:39:02;;;;;;;16.60;13.37;;;11.80;99.90;;;;;;5079137;28;20215;-86
2021/12/14 04:52:39;;;;;;;20.20;14.07;;;11.80;99.90;;;;;;5088829;28;20693;-87
2021/12/14 04:55:09;;;;;;;17.10;14.03;;;11.70;99.90;;;;;;5068104;28;20308;-86
2021/12/14 04:57:43;;;;;;;16.27;13.33;;;11.70;99.90;;;;;;5082378;28;20386;-87
2021/12/14 05:00:22;;;;;;;17.53;13.57;;;11.70;99.90;;;;;;5073917;28;20950;-86
2021/12/14 05:03:01;;;;;;;17.50;13.50;;;11.70;99.90;;;;;;5076151;28;20219;-86
2021/12/14 05:05:39;;;;;;;17.20;13.60;;;11.70;99.90;;;;;;5070277;28;20294;-87
2021/12/14 05:10:56;;;;;;;13.30;11.47;;;11.70;99.90;;;;;;5068967;28;20223;-86
2021/12/14 05:13:26;;;;;;;17.33;12.90;;;11.70;99.90;;;;;;5058303;28;20629;-90
2021/12/14 05:15:55;;;;;;;17.40;12.77;;;11.70;99.90;;;;;;5068904;28;20998;-88
2021/12/14 05:18:23;;;;;;;15.70;12.10;;;11.70;99.90;;;;;;5069374;28;20215;-87
2021/12/14 05:20:52;;;;;;;17.67;13.53;;;11.70;99.90;;;;;;5071387;28;20223;-85
2021/12/14 05:23:22;;;;;;;17.40;12.73;;;11.70;99.90;;;;;;5063656;28;20217;-87
2021/12/14 05:25:50;;;;;;;17.97;12.63;;;11.70;99.90;;;;;;5072290;28;20281;-85
2021/12/14 05:28:19;;;;;;;15.37;12.10;;;11.70;99.90;;;;;;5076061;28;20218;-83
2021/12/14 05:30:52;;;;;;;14.33;12.27;;;11.70;99.90;;;;;;5067557;28;20602;-85
2021/12/14 05:33:35;;;;;;;15.53;12.50;;;11.70;99.90;;;;;;5072161;28;20224;-85
2021/12/14 05:36:21;;;;;;;15.67;11.73;;;11.70;99.90;;;;;;5071458;28;20657;-85
2021/12/14 05:38:56;;;;;;;13.97;11.60;;;11.70;99.90;;;;;;5076260;28;20218;-85
2021/12/14 05:44:32;;;;;;;17.87;11.77;;;11.70;99.90;;;;;;5071421;28;20226;-85
2021/12/14 05:47:06;;;;;;;16.03;11.87;;;11.70;99.90;;;;;;5069519;28;20223;-85
2021/12/14 05:49:48;;;;;;;14.67;12.23;;;11.70;99.90;;;;;;5070721;28;20245;-85
2021/12/14 05:52:17;;;;;;;16.70;11.67;;;11.70;99.90;;;;;;5079621;28;20543;-85
2021/12/14 05:54:44;;;;;;;15.43;12.03;;;11.70;99.90;;;;;;5070219;28;20277;-86
2021/12/14 05:57:17;;;;;;;16.47;11.53;;;11.70;99.90;;;;;;5062730;28;20222;-84
2021/12/14 05:59:45;;;;;;;15.20;11.17;;;11.70;99.90;;;;;;5084568;28;20224;-84
2021/12/14 06:02:13;;;;;;;13.40;10.60;;;11.70;99.90;;;;;;5074735;28;20217;-85
2021/12/14 06:04:45;;;;;;;14.80;11.43;;;11.70;99.90;;;;;;5073314;28;20250;-82
2021/12/14 06:07:14;;;;;;;14.60;10.80;;;11.70;99.90;;;;;;5075337;28;20229;-85
2021/12/14 06:09:45;;;;;;;14.73;11.40;;;11.60;99.90;;;;;;5076694;28;20278;-85
2021/12/14 06:12:23;;;;;;;14.10;11.30;;;11.60;99.90;;;;;;5048691;28;20233;-86
2021/12/14 06:14:55;;;;;;;15.27;10.80;;;11.70;99.90;;;;;;5077165;28;20301;-85
2021/12/14 06:17:26;;;;;;;15.03;11.10;;;11.70;99.90;;;;;;5068990;28;20283;-86
2021/12/14 06:19:55;;;;;;;14.23;11.80;;;11.70;99.90;;;;;;5074228;28;20218;-86
2021/12/14 06:22:25;;;;;;;14.67;11.37;;;11.70;99.90;;;;;;5075678;28;20228;-86
2021/12/14 06:24:55;;;;;;;12.93;10.67;;;11.70;99.90;;;;;;5069727;28;20227;-86
2021/12/14 06:27:29;;;;;;;13.50;11.40;;;11.70;99.90;;;;;;5082336;28;20245;-85
2021/12/14 06:29:59;;;;;;;18.90;11.60;;;11.70;99.90;;;;;;5064829;28;20208;-85
2021/12/14 06:32:32;;;;;;;15.47;11.17;;;11.70;99.90;;;;;;5079107;28;20226;-85
2021/12/14 06:35:05;;;;;;;15.70;11.57;;;11.70;99.90;;;;;;5067475;28;20241;-86
2021/12/14 06:38:09;;;;;;;13.47;10.80;;;11.70;99.90;;;;;;5067573;28;20227;-86
2021/12/14 06:40:40;;;;;;;14.53;11.80;;;11.70;99.90;;;;;;5075218;28;20220;-85
2021/12/14 06:43:10;;;;;;;14.77;11.57;;;11.70;99.90;;;;;;5066269;28;20229;-86
2021/12/14 06:45:42;;;;;;;15.30;12.03;;;11.70;99.90;;;;;;5068563;28;20348;-85
2021/12/14 06:48:16;;;;;;;17.97;11.87;;;11.70;99.90;;;;;;5070408;28;20215;-86
2021/12/14 06:50:47;;;;;;;14.40;11.17;;;11.80;99.90;;;;;;5068055;28;20228;-86
2021/12/14 06:53:30;;;;;;;15.87;12.43;;;11.70;99.90;;;;;;5067640;28;20276;-87
2021/12/14 06:56:17;;;;;;;16.20;12.33;;;11.70;99.90;;;;;;5071816;28;20606;-86
2021/12/14 06:58:54;;;;;;;18.57;13.27;;;11.70;99.90;;;;;;5062563;28;20258;-86
2021/12/14 07:01:34;;;;;;;19.07;12.77;;;11.70;99.90;;;;;;5075585;28;20220;-85
2021/12/14 07:04:05;;;;;;;18.63;13.00;;;11.70;99.90;;;;;;5067983;28;20247;-85
2021/12/14 07:06:42;;;;;;;19.77;14.67;;;11.60;99.90;;;;;;5059566;28;20237;-86
2021/12/14 07:09:12;;;;;;;19.57;13.13;;;11.60;99.90;;;;;;5061237;28;20223;-86
2021/12/14 07:11:44;;;;;;;17.63;13.70;;;11.60;99.90;;;;;;5087496;28;20230;-86
2021/12/14 07:14:25;;;;;;;20.50;13.93;;;11.60;99.90;;;;;;5060456;28;20252;-85
2021/12/14 07:16:52;;;;;;;20.23;13.70;;;11.60;99.90;;;;;;5075599;28;20310;-85
2021/12/14 07:19:39;;;;;;;18.70;13.80;;;11.50;99.90;;;;;;5072890;28;20254;-85
2021/12/14 07:22:06;;;;;;;18.57;13.73;;;11.50;99.90;;;;;;5065910;28;20219;-86
2021/12/14 07:24:37;;;;;;;20.83;14.77;;;11.50;99.90;;;;;;5074748;28;20232;-86
2021/12/14 07:27:18;;;;;;;21.93;14.03;;;11.50;99.90;;;;;;5049549;28;20708;-85
2021/12/14 07:29:45;;;;;;;17.53;13.60;;;11.50;99.90;;;;;;5070548;28;20228;-85
2021/12/14 07:32:12;;;;;;;20.53;14.23;;;11.50;99.90;;;;;;5074920;28;20232;-86
2021/12/14 07:34:39;;;;;;;20.17;14.27;;;11.50;99.90;;;;;;5076151;28;20222;-86
2021/12/14 07:37:06;;;;;;;19.80;14.70;;;11.50;99.90;;;;;;5065243;28;20236;-86
2021/12/14 07:39:32;;;;;;;21.03;14.50;;;11.50;99.90;;;;;;5073042;28;20225;-85
2021/12/14 07:42:01;;;;;;;18.93;14.53;;;11.50;99.90;;;;;;5067685;28;20301;-85
2021/12/14 07:44:47;;;;;;;18.33;14.00;;;11.50;99.90;;;;;;5071747;28;20232;-86
2021/12/14 07:47:19;;;;;;;20.13;14.90;;;11.50;99.90;;;;;;5068603;28;20225;-86
2021/12/14 07:49:54;;;;;;;22.10;14.60;;;11.50;99.90;;;;;;5075365;28;20223;-86
2021/12/14 07:52:23;;;;;;;20.77;14.53;;;11.50;99.90;;;;;;5072341;28;20230;-86
2021/12/14 07:54:52;;;;;;;22.30;15.43;;;11.50;99.90;;;;;;5066321;28;20226;-86
2021/12/14 07:57:24;;;;;;;24.03;16.30;;;11.50;99.90;;;;;;5063698;28;20223;-86
2021/12/14 07:59:53;;;;;;;24.93;16.30;;;11.50;99.90;;;;;;5064665;28;20217;-85
2021/12/14 08:02:22;;;;;;;22.23;15.87;;;11.50;99.90;;;;;;5066197;28;20233;-86
2021/12/14 08:04:53;;;;;;;20.77;15.63;;;11.50;99.90;;;;;;5073035;28;20309;-86
2021/12/14 08:07:29;;;;;;;21.30;16.00;;;11.50;99.90;;;;;;5074166;28;20314;-86
2021/12/14 08:10:06;;;;;;;23.87;16.47;;;11.50;99.90;;;;;;5084723;28;20313;-86
2021/12/14 08:12:39;;;;;;;22.83;16.70;;;11.50;99.90;;;;;;5067827;28;20232;-86
2021/12/14 08:15:22;;;;;;;23.93;17.53;;;11.50;99.90;;;;;;5078880;28;20216;-85
2021/12/14 08:18:06;;;;;;;22.90;17.33;;;11.50;99.90;;;;;;5070578;28;20572;-85
2021/12/14 08:20:34;;;;;;;21.10;15.87;;;11.50;99.90;;;;;;5070142;28;20740;-85
2021/12/14 08:23:14;;;;;;;24.27;17.33;;;11.40;99.90;;;;;;5073604;28;20219;-85
2021/12/14 08:25:42;;;;;;;23.77;18.33;;;11.40;99.90;;;;;;5075583;28;20425;-86
2021/12/14 08:28:11;;;;;;;28.67;18.77;;;11.40;99.90;;;;;;5085060;28;20210;-86
2021/12/14 08:30:40;;;;;;;28.70;18.93;;;11.40;99.90;;;;;;5072070;28;20236;-85
2021/12/14 08:33:19;;;;;;;28.27;18.67;;;11.40;99.90;;;;;;5073563;28;20225;-87
2021/12/14 08:35:46;;;;;;;27.73;18.83;;;11.40;99.90;;;;;;5080906;28;20226;-84
2021/12/14 08:38:17;;;;;;;28.07;19.27;;;11.40;99.90;;;;;;5073768;28;20229;-87
2021/12/14 08:40:49;;;;;;;32.17;19.13;;;11.40;99.90;;;;;;5079678;28;20218;-86
2021/12/14 08:43:24;;;;;;;27.80;19.17;;;11.30;99.90;;;;;;5075808;28;20278;-87
2021/12/14 08:45:54;;;;;;;28.90;19.30;;;11.30;99.90;;;;;;5074141;28;20330;-86
2021/12/14 08:48:24;;;;;;;28.57;19.67;;;11.40;99.90;;;;;;5069029;28;20215;-86
2021/12/14 08:50:55;;;;;;;28.40;19.00;;;11.30;99.90;;;;;;5063928;28;20752;-87
2021/12/14 08:53:23;;;;;;;27.17;19.07;;;11.30;99.90;;;;;;5076060;28;20298;-87
2021/12/14 08:55:54;;;;;;;32.33;20.70;;;11.40;99.90;;;;;;5076597;28;20618;-87
2021/12/14 08:58:24;;;;;;;30.77;19.47;;;11.30;99.90;;;;;;5072272;28;20223;-86
2021/12/14 09:00:55;;;;;;;28.37;19.77;;;11.40;99.90;;;;;;5073890;28;20950;-87
2021/12/14 09:03:31;;;;;;;27.73;20.50;;;11.30;99.90;;;;;;5069586;28;20764;-87
2021/12/14 09:05:59;;;;;;;32.40;20.83;;;11.40;99.90;;;;;;5064126;28;20272;-84
2021/12/14 09:08:26;;;;;;;26.23;19.37;;;11.40;99.90;;;;;;5068159;28;20303;-86
2021/12/14 09:10:56;;;;;;;30.70;20.33;;;11.40;99.90;;;;;;5078827;28;20304;-86
2021/12/14 09:13:27;;;;;;;28.87;20.23;;;11.40;99.90;;;;;;5066849;28;20275;-85
2021/12/14 09:15:57;;;;;;;29.10;20.50;;;11.40;99.90;;;;;;5083735;28;20222;-87
2021/12/14 09:18:25;;;;;;;29.07;19.43;;;11.40;99.90;;;;;;5070355;28;20253;-87
2021/12/14 09:20:56;;;;;;;29.63;20.37;;;11.40;99.90;;;;;;5075423;28;20218;-87
2021/12/14 09:23:26;;;;;;;29.17;20.63;;;11.40;99.90;;;;;;5071491;28;20232;-87
2021/12/14 09:25:54;;;;;;;29.07;19.40;;;11.40;99.90;;;;;;5071061;28;20770;-87
2021/12/14 09:28:21;;;;;;;30.87;20.27;;;11.40;99.90;;;;;;5078563;28;20211;-88
2021/12/14 09:30:55;;;;;;;33.53;21.23;;;11.40;99.90;;;;;;5091604;28;20230;-89
2021/12/14 09:33:23;;;;;;;29.83;20.80;;;11.50;99.90;;;;;;5092962;28;20221;-88
2021/12/14 09:35:50;;;;;;;31.17;20.87;;;11.50;99.90;;;;;;5081832;28;20227;-89
2021/12/14 09:38:19;;;;;;;29.13;19.03;;;11.50;99.90;;;;;;5071963;28;20386;-87
2021/12/14 09:40:49;;;;;;;29.37;19.40;;;11.50;99.90;;;;;;5073518;28;20241;-88
2021/12/14 09:43:17;;;;;;;29.57;18.87;;;11.50;99.90;;;;;;5080455;28;20276;-89
2021/12/14 09:45:46;;;;;;;28.67;20.37;;;11.50;99.90;;;;;;5082504;28;20223;-89
2021/12/14 09:48:18;;;;;;;28.33;18.90;;;11.50;99.90;;;;;;5085680;28;20223;-89
2021/12/14 09:50:47;;;;;;;28.87;19.67;;;11.50;99.90;;;;;;5090129;28;20634;-89
2021/12/14 09:53:17;;;;;;;33.30;21.13;;;11.50;99.90;;;;;;5072164;28;20309;-89
2021/12/14 09:55:47;;;;;;;31.73;19.87;;;11.50;99.90;;;;;;5085699;28;20231;-83
2021/12/14 09:58:18;;;;;;;32.53;20.67;;;11.60;99.90;;;;;;5065749;28;20219;-84
2021/12/14 10:00:47;;;;;;;32.13;21.70;;;11.60;99.90;;;;;;5063605;28;20239;-83
2021/12/14 10:03:16;;;;;;;33.27;21.30;;;11.60;99.90;;;;;;5065452;28;20300;-83
2021/12/14 10:05:47;;;;;;;32.83;20.90;;;11.60;99.90;;;;;;5077606;28;20224;-83
2021/12/14 10:08:18;;;;;;;33.67;21.80;;;11.60;99.90;;;;;;5068478;28;20282;-83
2021/12/14 10:10:52;;;;;;;33.87;22.27;;;11.60;99.90;;;;;;5074595;28;20231;-84
2021/12/14 10:13:19;;;;;;;31.30;21.13;;;11.70;99.90;;;;;;5078549;28;20226;-82
2021/12/14 10:15:50;;;;;;;37.10;21.60;;;11.70;99.90;;;;;;5071039;28;20219;-83
2021/12/14 10:18:21;;;;;;;32.17;21.90;;;11.70;99.90;;;;;;5069975;28;20222;-83
2021/12/14 10:20:52;;;;;;;31.87;20.80;;;11.70;99.90;;;;;;5071336;28;20219;-83
2021/12/14 10:23:20;;;;;;;33.17;21.73;;;11.70;99.90;;;;;;5074119;28;20718;-83
2021/12/14 10:25:48;;;;;;;34.73;21.53;;;11.70;99.90;;;;;;5072227;28;20314;-83
2021/12/14 10:28:15;;;;;;;34.27;20.97;;;11.70;99.90;;;;;;5065370;28;20737;-82
2021/12/14 10:30:45;;;;;;;30.67;20.17;;;11.70;99.90;;;;;;5071804;28;20230;-82
2021/12/14 10:33:13;;;;;;;36.13;22.00;;;11.70;99.90;;;;;;5066192;28;20278;-83
2021/12/14 10:35:48;;;;;;;34.50;21.17;;;11.70;99.90;;;;;;5069376;28;20318;-83
2021/12/14 10:38:22;;;;;;;33.90;21.47;;;11.70;99.90;;;;;;5062666;28;20246;-83
2021/12/14 10:43:40;;;;;;;33.73;22.10;;;11.70;99.90;;;;;;5065068;28;20230;-83
2021/12/14 10:46:12;;;;;;;33.50;20.23;;;11.70;99.90;;;;;;5066434;28;20286;-83
2021/12/14 10:48:41;;;;;;;33.83;21.77;;;11.70;99.90;;;;;;5070432;28;20312;-83
2021/12/14 10:51:14;;;;;;;31.67;20.77;;;11.80;99.90;;;;;;5073480;28;20217;-83
2021/12/14 10:53:43;;;;;;;35.47;22.50;;;11.80;99.90;;;;;;5068843;28;20721;-83
2021/12/14 10:56:13;;;;;;;33.03;21.07;;;11.80;99.90;;;;;;5067580;28;20224;-83
2021/12/14 10:58:41;;;;;;;33.87;21.40;;;11.80;99.90;;;;;;5074726;28;20223;-83
2021/12/14 11:01:11;;;;;;;34.37;21.20;;;11.80;99.90;;;;;;5062302;28;20937;-83
2021/12/14 11:03:44;;;;;;;46.23;23.87;;;11.80;99.90;;;;;;5065795;28;20220;-83
2021/12/14 11:06:20;;;;;;;42.67;21.87;;;11.80;99.90;;;;;;5074921;28;20270;-83
2021/12/14 11:08:59;;;;;;;44.33;21.77;;;11.80;99.90;;;;;;5068763;28;20218;-82
2021/12/14 11:11:32;;;;;;;54.77;21.77;;;11.80;99.90;;;;;;5071493;28;20229;-83
2021/12/14 11:14:01;;;;;;;39.73;21.40;;;11.80;99.90;;;;;;5063366;28;20233;-82
2021/12/14 11:18:08;;;;;;;32.40;20.23;;;11.80;99.90;;;;;;5068451;28;20222;-82
2021/12/14 11:19:30;;;;;;;30.57;20.33;;;11.90;99.90;;;;;;5061169;28;20271;-82
2021/12/14 11:22:09;;;;;;;35.37;20.87;;;11.90;99.90;;;;;;5062452;28;20692;-82
2021/12/14 11:24:39;;;;;;;33.67;20.60;;;11.90;99.90;;;;;;5065280;28;20231;-82
2021/12/14 11:27:13;;;;;;;28.87;19.43;;;11.90;99.90;;;;;;5077020;28;20569;-82
2021/12/14 11:29:40;;;;;;;30.27;20.53;;;11.90;99.90;;;;;;5063589;28;20219;-82
2021/12/14 11:32:08;;;;;;;33.83;19.77;;;11.90;99.90;;;;;;5074482;28;20967;-81
2021/12/14 11:34:39;;;;;;;35.60;21.37;;;11.90;99.90;;;;;;5069366;28;20216;-82
2021/12/14 11:37:14;;;;;;;31.00;20.50;;;11.90;99.90;;;;;;5072101;28;20311;-83
2021/12/14 11:39:44;;;;;;;38.33;22.13;;;11.90;99.90;;;;;;5079435;28;20255;-83
2021/12/14 11:42:13;;;;;;;30.60;21.07;;;11.90;99.90;;;;;;5072994;28;20674;-82
2021/12/14 11:44:45;;;;;;;33.37;21.57;;;11.90;99.90;;;;;;5073282;28;20788;-82
2021/12/14 11:47:40;;;;;;;34.57;22.13;;;11.90;99.90;;;;;;5073923;28;20467;-82
2021/12/14 11:50:06;;;;;;;32.37;20.53;;;12.00;99.90;;;;;;5075473;28;20218;-83
2021/12/14 11:52:42;;;;;;;33.47;21.30;;;11.90;99.90;;;;;;5076672;28;20211;-82
2021/12/14 11:55:28;;;;;;;29.37;19.90;;;11.90;99.90;;;;;;5072536;28;20224;-82
2021/12/14 11:58:19;;;;;;;33.40;20.77;;;11.90;99.90;;;;;;5071435;28;20700;-82
2021/12/14 12:00:50;;;;;;;30.73;20.53;;;11.90;99.90;;;;;;5069411;28;20308;-82
2021/12/14 12:03:36;;;;;;;31.40;20.93;;;12.00;99.90;;;;;;5069134;28;20347;-82
2021/12/14 12:06:13;;;;;;;33.13;20.73;;;11.90;99.90;;;;;;5071248;28;20786;-82
2021/12/14 12:11:37;;;;;;;28.60;19.60;;;11.90;99.90;;;;;;5069524;28;20219;-82
2021/12/14 12:14:18;;;;;;;31.97;20.23;;;11.90;99.90;;;;;;5067974;28;20239;-82
2021/12/14 12:16:45;;;;;;;29.57;19.27;;;12.00;99.90;;;;;;5070944;28;20223;-81
2021/12/14 12:19:16;;;;;;;31.20;19.97;;;12.00;99.90;;;;;;5073980;28;20222;-80
2021/12/14 12:21:45;;;;;;;27.63;17.63;;;12.00;99.90;;;;;;5073925;28;20218;-80
2021/12/14 12:24:40;;;;;;;29.60;18.77;;;12.00;99.90;;;;;;5074596;28;20281;-81
2021/12/14 12:27:23;;;;;;;29.53;16.90;;;11.90;99.90;;;;;;5064023;28;20228;-80
2021/12/14 12:30:10;;;;;;;26.20;16.70;;;12.00;99.90;;;;;;5065163;28;20212;-80
2021/12/14 12:32:37;;;;;;;27.53;17.97;;;12.00;99.90;;;;;;5064990;28;20406;-80
2021/12/14 12:35:22;;;;;;;28.13;18.10;;;12.00;99.90;;;;;;5067604;28;20235;-80
2021/12/14 12:37:49;;;;;;;28.13;17.40;;;12.00;99.90;;;;;;5071567;28;20340;-81
2021/12/14 12:40:31;;;;;;;24.93;16.93;;;12.00;99.90;;;;;;5077779;28;20241;-80
2021/12/14 12:43:17;;;;;;;24.33;16.37;;;12.00;99.90;;;;;;5066337;28;20244;-81
2021/12/14 12:45:59;;;;;;;24.50;16.40;;;12.00;99.90;;;;;;5073964;28;20316;-80
2021/12/14 12:49:06;;;;;;;27.40;17.73;;;12.00;99.90;;;;;;5074435;28;20207;-80
2021/12/14 12:52:08;;;;;;;25.10;16.90;;;12.00;99.90;;;;;;5085216;28;20321;-83
2021/12/14 12:55:02;;;;;;;25.67;18.13;;;12.00;99.90;;;;;;5070615;28;20234;-83
2021/12/14 12:57:54;;;;;;;25.37;17.33;;;12.00;99.90;;;;;;5071768;28;20563;-83
2021/12/14 13:00:35;;;;;;;27.10;16.93;;;12.00;99.90;;;;;;5076923;28;20822;-83
2021/12/14 13:03:08;;;;;;;26.37;17.10;;;12.10;99.90;;;;;;5068242;28;20230;-83
2021/12/14 13:05:39;;;;;;;25.50;16.57;;;12.10;99.90;;;;;;5073306;28;20222;-82
2021/12/14 13:08:12;;;;;;;26.40;16.87;;;12.10;99.90;;;;;;5073715;28;20223;-83
2021/12/14 13:10:42;;;;;;;23.87;15.83;;;12.10;99.90;;;;;;5072305;28;20224;-82
2021/12/14 13:13:13;;;;;;;27.03;16.80;;;12.10;99.90;;;;;;5074335;28;20238;-84
2021/12/14 13:15:53;;;;;;;26.83;17.20;;;12.10;99.90;;;;;;5072791;28;20225;-81
2021/12/14 13:18:36;;;;;;;24.67;16.57;;;12.10;99.90;;;;;;5068455;28;20293;-82